Time;durP1;ratioP1;P1;durP2;ratioP2;P2;SDS_P1;SDS_P2;PMS_P1;PMS_P2;Temp;Humidity;BMP_temperature;BMP_pressure;BME280_temperature;BME280_humidity;BME280_pressure;Samples;Min_cycle;Max_cycle;Signal;HPM_P1;HPM_P2
2021/12/11 00:00:30;;;;;;;0.10;0.10;;;2.80;99.90;;;2.52;100.00;99350.03;5009317;28;20222;-77
2021/12/11 00:03:07;;;;;;;0.10;0.10;;;2.80;99.90;;;2.51;100.00;99353.47;5008088;28;20297;-78
2021/12/11 00:05:37;;;;;;;0.10;0.10;;;2.90;99.90;;;2.52;100.00;99360.47;5024068;28;20890;-78
2021/12/11 00:08:08;;;;;;;0.10;0.10;;;2.90;99.90;;;2.53;100.00;99370.06;5008035;28;20210;-80
2021/12/11 00:10:42;;;;;;;0.10;0.10;;;2.90;99.90;;;2.56;100.00;99369.25;5007228;28;20206;-78
2021/12/11 00:13:20;;;;;;;0.10;0.10;;;2.80;99.90;;;2.55;100.00;99372.69;5025167;28;20206;-77
2021/12/11 00:15:49;;;;;;;0.10;0.10;;;2.90;99.90;;;2.57;100.00;99376.22;5031378;28;20206;-78
2021/12/11 00:18:25;;;;;;;0.10;0.10;;;2.90;99.90;;;2.56;100.00;99375.34;4995300;28;20212;-78
2021/12/11 00:21:05;;;;;;;0.10;0.10;;;2.90;99.90;;;2.55;100.00;99376.19;5005721;28;20222;-78
2021/12/11 00:23:44;;;;;;;0.10;0.10;;;2.90;99.90;;;2.55;100.00;99384.03;5020447;28;20198;-77
2021/12/11 00:26:13;;;;;;;0.10;0.10;;;2.80;99.90;;;2.57;100.00;99389.28;5012174;28;20203;-77
2021/12/11 00:28:50;;;;;;;0.20;0.20;;;2.90;99.90;;;2.56;100.00;99393.63;4996350;28;20227;-78
2021/12/11 00:31:19;;;;;;;0.10;0.10;;;2.80;99.90;;;2.57;100.00;99402.31;5026929;28;20206;-77
2021/12/11 00:33:49;;;;;;;0.10;0.10;;;2.90;99.90;;;2.56;100.00;99405.78;5004839;28;20203;-78
2021/12/11 00:36:21;;;;;;;0.20;0.20;;;2.90;99.90;;;2.58;100.00;99411.94;5024373;28;20219;-79
2021/12/11 00:38:52;;;;;;;0.10;0.10;;;2.90;99.90;;;2.57;100.00;99412.75;5024425;28;20222;-78
2021/12/11 00:41:22;;;;;;;0.10;0.10;;;2.90;99.90;;;2.57;100.00;99418.00;5011269;28;20233;-78
2021/12/11 00:43:50;;;;;;;0.10;0.10;;;2.90;99.90;;;2.56;100.00;99422.31;5011555;28;20221;-77
2021/12/11 00:46:29;;;;;;;0.10;0.10;;;2.90;99.90;;;2.57;100.00;99431.03;4992803;28;20226;-80
2021/12/11 00:49:28;;;;;;;0.10;0.10;;;2.90;99.90;;;2.58;100.00;99438.03;5009405;28;20244;-78
2021/12/11 00:51:56;;;;;;;0.10;0.10;;;2.90;99.90;;;2.58;100.00;99440.63;5014362;28;20211;-78
2021/12/11 00:54:24;;;;;;;0.10;0.10;;;6.80;99.90;;;2.57;100.00;99439.75;5006376;28;20555;-77
2021/12/11 00:56:52;;;;;;;0.10;0.10;;;2.90;99.90;;;2.58;100.00;99440.63;4994828;28;20202;-78
2021/12/11 00:59:21;;;;;;;0.10;0.10;;;2.90;99.90;;;2.61;100.00;99452.91;5007518;28;20225;-78
2021/12/11 01:01:59;;;;;;;0.20;0.20;;;2.90;99.90;;;2.60;100.00;99457.25;5007526;28;20601;-78
2021/12/11 01:04:40;;;;;;;0.20;0.20;;;2.90;99.90;;;2.60;100.00;99465.06;5011593;28;20210;-78
2021/12/11 01:07:18;;;;;;;0.10;0.10;;;2.90;99.90;;;2.58;100.00;99467.59;4995320;28;20210;-78
2021/12/11 01:09:55;;;;;;;0.10;0.10;;;2.90;99.90;;;2.58;100.00;99471.94;5013757;28;20237;-77
2021/12/11 01:12:46;;;;;;;0.10;0.10;;;3.00;99.90;;;2.59;100.00;99486.75;5013408;28;20210;-77
2021/12/11 01:15:40;;;;;;;0.10;0.10;;;2.90;99.90;;;2.57;100.00;99488.44;5007772;28;20554;-77
2021/12/11 01:21:28;;;;;;;0.10;0.10;;;2.90;99.90;;;2.57;100.00;99504.13;4996814;28;20218;-77
2021/12/11 01:24:12;;;;;;;0.10;0.10;;;2.90;99.90;;;2.57;100.00;99511.94;5011943;28;20202;-78
2021/12/11 01:26:51;;;;;;;0.10;0.10;;;2.90;99.90;;;2.56;100.00;99521.50;5009721;28;20225;-78
2021/12/11 01:29:22;;;;;;;0.10;0.10;;;2.90;99.90;;;2.54;100.00;99527.53;5010498;28;20229;-77
2021/12/11 01:31:53;;;;;;;0.10;0.10;;;2.90;99.90;;;2.55;100.00;99534.50;5007590;28;20230;-77
2021/12/11 01:34:20;;;;;;;0.10;0.10;;;2.90;99.90;;;2.54;100.00;99551.00;4997279;28;20206;-77
2021/12/11 01:36:50;;;;;;;0.10;0.10;;;2.90;99.90;;;2.54;100.00;99551.91;4995112;28;20215;-78
2021/12/11 01:39:23;;;;;;;0.10;0.10;;;2.80;99.90;;;2.54;100.00;99562.34;5031944;28;20242;-78
2021/12/11 01:41:55;;;;;;;0.10;0.10;;;2.80;99.90;;;2.53;100.00;99567.50;5007733;28;20231;-78
2021/12/11 01:44:34;;;;;;;0.10;0.10;;;2.80;99.90;;;2.52;100.00;99569.22;5010586;28;20205;-78
2021/12/11 01:47:18;;;;;;;0.10;0.10;;;2.80;99.90;;;2.52;100.00;99579.66;4986744;28;20226;-77
2021/12/11 01:49:50;;;;;;;0.10;0.10;;;2.80;99.90;;;2.51;100.00;99583.13;4997344;28;20582;-78
2021/12/11 01:52:37;;;;;;;0.10;0.10;;;2.80;99.90;;;2.51;100.00;99596.19;4989012;28;20210;-78
2021/12/11 01:55:38;;;;;;;0.10;0.10;;;2.80;99.90;;;2.51;100.00;99605.72;4990008;28;20211;-77
2021/12/11 01:58:10;;;;;;;0.10;0.10;;;2.80;99.90;;;2.52;100.00;99610.09;5023879;28;20216;-78
2021/12/11 02:00:50;;;;;;;0.10;0.10;;;2.90;99.90;;;2.50;100.00;99623.13;4994222;28;20213;-78
2021/12/11 02:03:27;;;;;;;0.10;0.10;;;2.80;99.90;;;2.51;100.00;99624.88;5033905;28;20211;-77
2021/12/11 02:05:55;;;;;;;0.10;0.10;;;2.80;99.90;;;2.50;100.00;99628.31;4996626;28;20229;-77
2021/12/11 02:08:32;;;;;;;0.20;0.20;;;2.80;99.90;;;2.49;100.00;99625.69;4974853;28;20223;-78
2021/12/11 02:11:10;;;;;;;0.10;0.10;;;2.80;99.90;;;2.49;100.00;99636.13;5031141;28;20202;-77
2021/12/11 02:13:55;;;;;;;0.10;0.10;;;2.80;99.90;;;2.48;100.00;99650.88;5008161;28;20206;-77
2021/12/11 02:16:53;;;;;;;0.10;0.10;;;2.80;99.90;;;2.48;100.00;99650.88;5012258;28;20672;-77
2021/12/11 02:19:30;;;;;;;0.10;0.10;;;2.80;99.90;;;2.48;100.00;99650.00;5008520;28;20252;-78
2021/12/11 02:22:02;;;;;;;0.10;0.10;;;2.80;99.90;;;2.47;100.00;99654.34;5011523;28;20238;-77
2021/12/11 02:24:47;;;;;;;0.10;0.10;;;2.80;99.90;;;2.46;100.00;99652.56;5010702;28;20199;-78
2021/12/11 02:27:25;;;;;;;0.10;0.10;;;2.80;99.90;;;2.45;100.00;99665.56;4999260;28;20221;-77
2021/12/11 02:30:09;;;;;;;0.10;0.10;;;2.80;99.90;;;2.44;100.00;99667.31;5025374;28;20232;-76
2021/12/11 02:32:48;;;;;;;0.10;0.10;;;2.70;99.90;;;2.43;100.00;99680.31;5025797;28;20211;-78
2021/12/11 02:35:30;;;;;;;0.10;0.10;;;2.70;99.90;;;2.42;100.00;99684.63;5015348;28;20215;-78
2021/12/11 02:38:20;;;;;;;0.10;0.10;;;2.70;99.90;;;2.42;100.00;99689.84;5009837;28;20214;-78
2021/12/11 02:41:00;;;;;;;0.10;0.10;;;2.70;99.90;;;2.42;100.00;99700.28;4997031;28;20223;-77
2021/12/11 02:43:47;;;;;;;0.10;0.10;;;2.80;99.90;;;2.42;100.00;99705.50;5028394;28;20210;-77
2021/12/11 02:46:19;;;;;;;0.10;0.10;;;2.80;99.90;;;2.40;100.00;99699.38;5026963;28;20214;-77
2021/12/11 02:48:56;;;;;;;0.10;0.10;;;2.80;99.90;;;2.41;100.00;99705.47;5009955;28;20242;-77
2021/12/11 02:51:59;;;;;;;0.10;0.10;;;2.70;99.90;;;2.40;100.00;99709.81;5014543;28;20217;-78
2021/12/11 02:54:56;;;;;;;0.10;0.10;;;2.70;99.90;;;2.40;100.00;99715.03;4976263;28;20206;-78
2021/12/11 02:57:34;;;;;;;0.10;0.10;;;2.70;99.90;;;2.39;100.00;99718.47;5010345;28;20210;-77
2021/12/11 03:00:22;;;;;;;0.10;0.10;;;2.70;99.90;;;2.40;100.00;99729.78;5026904;28;20221;-77
2021/12/11 03:03:01;;;;;;;0.10;0.10;;;2.70;99.90;;;2.39;100.00;99726.28;4989680;28;20225;-77
2021/12/11 03:05:44;;;;;;;0.10;0.10;;;2.70;99.90;;;2.39;100.00;99733.22;4998937;28;20210;-76
2021/12/11 03:08:18;;;;;;;0.10;0.10;;;2.70;99.90;;;2.38;100.00;99741.91;5027871;28;20202;-77
2021/12/11 03:10:54;;;;;;;0.10;0.10;;;3.00;99.90;;;2.39;100.00;99751.50;5028305;28;20211;-78
2021/12/11 03:13:24;;;;;;;0.10;0.10;;;2.70;99.90;;;2.39;100.00;99754.09;4990624;28;20211;-77
2021/12/11 03:15:52;;;;;;;0.20;0.20;;;;;;;2.38;100.00;99750.63;4992960;28;20211;-78
2021/12/11 03:18:20;;;;;;;0.20;0.20;;;2.70;99.90;;;2.37;100.00;99763.63;4994259;28;20250;-77
2021/12/11 03:20:51;;;;;;;0.10;0.10;;;2.70;99.90;;;2.35;100.00;99771.41;5010289;28;20207;-78
2021/12/11 03:23:20;;;;;;;0.10;0.10;;;2.70;99.90;;;2.35;100.00;99768.78;5013339;28;20580;-77
2021/12/11 03:25:49;;;;;;;0.10;0.10;;;2.70;99.90;;;2.35;100.00;99778.34;5006120;28;20203;-77
2021/12/11 03:28:20;;;;;;;0.10;0.10;;;2.70;99.90;;;2.34;100.00;99787.88;5024448;28;20203;-77
2021/12/11 03:30:57;;;;;;;0.10;0.10;;;2.70;99.90;;;2.35;100.00;99794.88;5007435;28;20218;-77
2021/12/11 03:33:34;;;;;;;0.10;0.10;;;2.70;99.90;;;2.35;100.00;99804.44;5023152;28;20207;-77
2021/12/11 03:36:07;;;;;;;0.10;0.10;;;2.70;99.90;;;2.33;100.00;99803.50;5021504;28;20214;-77
2021/12/11 03:38:43;;;;;;;0.10;0.10;;;2.60;99.90;;;2.32;100.00;99805.22;5011969;28;20237;-78
2021/12/11 03:41:12;;;;;;;0.10;0.10;;;2.60;99.90;;;2.33;100.00;99808.72;5006217;28;20217;-78
2021/12/11 03:43:41;;;;;;;0.10;0.10;;;2.70;99.90;;;2.33;100.00;99817.44;4995190;28;20731;-77
2021/12/11 03:46:11;;;;;;;0.10;0.10;;;2.70;99.90;;;2.33;100.00;99825.25;5007603;28;20210;-77
2021/12/11 03:48:48;;;;;;;0.10;0.10;;;2.60;99.90;;;2.32;100.00;99836.53;4993479;28;20261;-78
2021/12/11 03:51:23;;;;;;;0.10;0.10;;;2.70;99.90;;;2.31;100.00;99831.25;5010052;28;20194;-77
2021/12/11 03:53:51;;;;;;;0.10;0.10;;;2.70;99.90;;;2.31;100.00;99836.47;5008025;28;20202;-77
2021/12/11 03:56:20;;;;;;;0.20;0.20;;;2.70;99.90;;;2.31;100.00;99841.69;4982985;28;20206;-77
2021/12/11 03:58:50;;;;;;;0.10;0.10;;;2.60;99.90;;;2.30;100.00;99852.97;4992191;28;20230;-77
2021/12/11 04:01:31;;;;;;;0.10;0.10;;;2.60;99.90;;;2.30;100.00;99861.69;5010421;28;20218;-77
2021/12/11 04:04:21;;;;;;;0.10;0.10;;;2.60;99.90;;;2.31;100.00;99866.06;5008943;28;20239;-77
2021/12/11 04:06:51;;;;;;;0.10;0.10;;;2.60;99.90;;;2.31;100.00;99871.28;5026148;28;20202;-77
2021/12/11 04:09:19;;;;;;;0.20;0.20;;;2.60;99.90;;;2.31;100.00;99873.88;5007279;28;20226;-76
2021/12/11 04:11:50;;;;;;;0.10;0.10;;;2.60;99.90;;;2.33;100.00;99881.75;4994373;28;20210;-77
2021/12/11 04:14:25;;;;;;;0.10;0.10;;;2.60;99.90;;;2.35;100.00;99885.31;4991658;28;20207;-77
2021/12/11 04:16:54;;;;;;;0.20;0.20;;;2.60;99.90;;;2.34;100.00;99884.44;5028521;28;20208;-77
2021/12/11 04:19:22;;;;;;;0.10;0.10;;;2.60;99.90;;;2.35;100.00;99890.53;4995469;28;20685;-77
2021/12/11 04:21:51;;;;;;;0.10;0.10;;;2.60;99.90;;;2.35;100.00;99886.19;4991488;28;20215;-76
2021/12/11 04:24:24;;;;;;;0.10;0.10;;;2.70;99.90;;;2.36;100.00;99890.56;5011068;28;20209;-77
2021/12/11 04:26:55;;;;;;;0.10;0.10;;;2.70;99.90;;;2.35;100.00;99894.03;4994085;28;20211;-76
2021/12/11 04:29:23;;;;;;;0.10;0.10;;;2.70;99.90;;;2.36;100.00;99894.91;5010515;28;20242;-77
2021/12/11 04:31:53;;;;;;;0.10;0.10;;;2.70;99.90;;;2.36;100.00;99914.06;5014485;28;20198;-77
2021/12/11 04:34:23;;;;;;;0.10;0.10;;;2.60;99.90;;;2.35;100.00;99917.50;5015982;28;20213;-77
2021/12/11 04:37:03;;;;;;;0.10;0.10;;;2.70;99.90;;;2.37;100.00;99931.50;4994249;28;20207;-77
2021/12/11 04:39:36;;;;;;;0.10;0.10;;;2.60;99.90;;;2.36;100.00;99934.06;5011245;28;20226;-77
2021/12/11 04:42:19;;;;;;;0.10;0.10;;;2.70;99.90;;;2.38;100.00;99943.72;4994526;28;20210;-77
2021/12/11 04:44:48;;;;;;;0.10;0.10;;;2.70;99.90;;;2.38;100.00;99942.81;5010727;28;20605;-80
2021/12/11 04:47:42;;;;;;;0.10;0.10;;;2.70;99.90;;;2.38;100.00;99942.81;4989657;28;20213;-77
2021/12/11 04:52:00;;;;;;;;;;;;;;;;;;;;;
2021/12/11 04:59:13;;;;;;;0.10;0.10;;;2.70;99.90;;;2.38;100.00;99958.47;4973845;28;20211;-85
2021/12/11 05:04:34;;;;;;;0.25;0.25;;;;;;;2.37;100.00;99970.63;4971049;28;20228;-85
2021/12/11 05:07:34;;;;;;;0.10;0.10;;;;;;;2.39;100.00;99973.28;4967391;28;20235;-85
2021/12/11 05:10:23;;;;;;;0.10;0.10;;;2.70;99.90;;;2.40;100.00;99981.19;4957855;28;20220;-84
2021/12/11 05:12:56;;;;;;;0.10;0.10;;;2.70;99.90;;;2.41;100.00;99984.69;4936056;28;20205;-85
2021/12/11 05:15:33;;;;;;;0.10;0.10;;;2.70;99.90;;;2.40;100.00;99988.13;4937049;28;20583;-85
2021/12/11 05:18:09;;;;;;;0.10;0.10;;;2.70;99.90;;;2.39;100.00;99996.78;4953239;28;20211;-84
2021/12/11 05:20:40;;;;;;;0.10;0.10;;;2.70;99.90;;;2.37;100.00;99991.50;4952510;28;20234;-85
2021/12/11 05:23:08;;;;;;;0.10;0.10;;;;;;;2.37;100.00;100004.56;4942081;28;20229;-84
2021/12/11 05:25:37;;;;;;;0.10;0.10;;;;;;;2.37;100.00;100001.06;4940056;28;20200;-84
2021/12/11 05:28:06;;;;;;;0.10;0.10;;;2.80;99.90;;;2.35;100.00;100003.63;4937499;28;20220;-85
2021/12/11 05:30:40;;;;;;;0.10;0.10;;;2.80;99.90;;;2.36;100.00;100005.38;4953683;28;20245;-85
2021/12/11 05:33:08;;;;;;;0.20;0.20;;;2.70;99.90;;;2.36;100.00;100014.94;4937916;28;20204;-84
2021/12/11 05:35:40;;;;;;;0.38;0.38;;;2.70;99.90;;;2.35;100.00;100021.00;4952668;28;20207;-84
2021/12/11 05:38:11;;;;;;;0.10;0.10;;;2.80;99.90;;;2.34;100.00;100022.72;4939802;28;20216;-84
2021/12/11 05:40:45;;;;;;;0.10;0.10;;;2.70;99.90;;;2.32;100.00;100031.31;4939688;28;20228;-84
2021/12/11 05:43:13;;;;;;;0.10;0.10;;;;;;;2.30;100.00;100036.50;4972284;28;20217;-85
2021/12/11 05:45:42;;;;;;;0.10;0.10;;;;;;;2.26;100.00;100042.44;4941771;28;20209;-85
2021/12/11 05:48:15;;;;;;;0.10;0.10;;;2.60;99.90;;;2.25;100.00;100044.16;4940650;28;20209;-85
2021/12/11 05:50:57;;;;;;;0.20;0.20;;;2.60;99.90;;;2.24;100.00;100046.69;4940497;28;20583;-85
2021/12/11 06:01:51;;;;;;;0.10;0.10;;;2.60;99.90;;;2.21;100.00;100057.91;4875278;29;20754;-83
2021/12/11 06:04:27;;;;;;;0.10;0.10;;;2.60;99.90;;;2.20;100.00;100056.13;4973809;28;20227;-83
2021/12/11 06:06:56;;;;;;;0.10;0.10;;;;;;;2.17;100.00;100058.63;4960797;28;20200;-83
2021/12/11 06:09:29;;;;;;;0.10;0.10;;;2.50;99.90;;;2.14;100.00;100066.34;4967923;28;20225;-83
2021/12/11 06:12:05;;;;;;;0.10;0.10;;;2.50;99.90;;;2.12;100.00;100073.22;4949478;28;20235;-84
2021/12/11 06:14:50;;;;;;;0.10;0.10;;;2.50;99.90;;;2.12;100.00;100074.94;4972755;28;20204;-84
2021/12/11 06:17:25;;;;;;;0.10;0.10;;;2.40;99.90;;;2.11;100.00;100078.41;4956139;28;20702;-83
2021/12/11 06:19:55;;;;;;;0.10;0.10;;;2.50;99.90;;;2.11;100.00;100083.59;4960659;28;20592;-81
2021/12/11 06:22:31;;;;;;;0.10;0.10;;;2.50;99.90;;;2.10;100.00;100087.94;4955243;28;20236;-81
2021/12/11 06:25:06;;;;;;;0.10;0.10;;;2.50;99.90;;;2.11;100.00;100104.47;4957953;28;20227;-82
2021/12/11 06:28:08;;;;;;;0.10;0.10;;;2.40;99.90;;;2.06;100.00;100104.31;4948349;28;20204;-84
2021/12/11 06:30:39;;;;;;;0.10;0.10;;;2.40;99.90;;;2.05;100.00;100112.06;4950114;28;20231;-84
2021/12/11 06:33:08;;;;;;;0.10;0.10;;;;;;;2.03;100.00;100118.94;4976712;28;20220;-82
2021/12/11 06:36:08;;;;;;;0.10;0.10;;;2.40;99.90;;;2.06;100.00;100111.25;4958018;28;20239;-84
2021/12/11 06:38:38;;;;;;;0.10;0.10;;;2.40;99.90;;;2.04;100.00;100103.34;4973939;28;20220;-84
2021/12/11 06:41:11;;;;;;;0.10;0.10;;;2.40;99.90;;;2.03;100.00;100105.91;4977302;28;20205;-83
2021/12/11 06:43:39;;;;;;;0.10;0.10;;;2.40;99.90;;;2.00;100.00;100109.28;4943121;28;20228;-84
2021/12/11 06:46:08;;;;;;;0.20;0.20;;;2.30;99.90;;;2.01;100.00;100112.78;4975920;28;20205;-84
2021/12/11 06:48:37;;;;;;;0.10;0.10;;;2.40;99.90;;;2.02;100.00;100111.97;4943319;28;20212;-84
2021/12/11 06:51:06;;;;;;;0.10;0.10;;;2.40;99.90;;;2.03;100.00;100112.00;4943389;28;20216;-84
2021/12/11 06:53:45;;;;;;;0.10;0.10;;;2.30;99.90;;;2.02;100.00;100111.97;4943922;28;20220;-85
2021/12/11 06:56:20;;;;;;;0.10;0.10;;;2.40;99.90;;;1.98;100.00;100100.53;4959536;28;20663;-84
2021/12/11 06:58:51;;;;;;;0.10;0.10;;;2.40;99.90;;;2.02;100.00;100104.13;4974998;28;20240;-85
2021/12/11 07:01:23;;;;;;;0.10;0.10;;;2.40;99.90;;;2.08;100.00;100112.19;4959957;28;20205;-86
2021/12/11 07:03:52;;;;;;;0.15;0.15;;;2.40;99.90;;;2.02;100.00;100104.13;4959267;28;20232;-84
2021/12/11 07:06:21;;;;;;;0.10;0.10;;;2.30;99.90;;;1.95;100.00;100109.94;4942998;28;20200;-83
2021/12/11 07:08:51;;;;;;;0.10;0.10;;;;;;;1.86;100.00;100115.69;4967464;28;20229;-83
2021/12/11 07:11:22;;;;;;;0.25;0.25;;;2.20;99.90;;;1.82;100.00;100116.41;4960303;28;20216;-84
2021/12/11 07:13:51;;;;;;;0.10;0.10;;;2.10;99.90;;;1.76;100.00;100122.28;4977387;28;20213;-84
2021/12/11 07:16:19;;;;;;;0.75;0.75;;;;;;;1.73;100.00;100127.38;4958226;28;20204;-83
2021/12/11 07:18:50;;;;;;;0.10;0.10;;;;;;;1.71;100.00;100135.97;4958584;28;20229;-84
2021/12/11 07:21:18;;;;;;;0.10;0.10;;;2.00;99.90;;;1.71;100.00;100142.06;4960652;28;20213;-83
2021/12/11 07:23:47;;;;;;;0.20;0.20;;;;;;;1.62;100.00;100135.59;4960207;28;20221;-84
2021/12/11 07:26:31;;;;;;;0.10;0.10;;;1.90;99.90;;;1.58;100.00;100158.03;4945401;28;20224;-84
2021/12/11 07:29:13;;;;;;;0.10;0.10;;;1.90;99.90;;;1.53;100.00;100160.47;4977187;28;20231;-83
2021/12/11 07:31:45;;;;;;;0.20;0.20;;;1.70;99.90;;;1.48;100.00;100169.81;4944928;28;20212;-84
2021/12/11 07:34:18;;;;;;;0.10;0.10;;;1.70;99.90;;;1.43;100.00;100180.88;4974330;28;20200;-83
2021/12/11 07:36:51;;;;;;;0.15;0.15;;;1.60;99.90;;;1.36;100.00;100190.16;4939725;28;20205;-84
2021/12/11 07:39:21;;;;;;;0.10;0.10;;;1.60;99.90;;;1.36;100.00;100197.97;4970673;28;20228;-84
2021/12/11 07:41:57;;;;;;;0.17;0.17;;;1.70;99.90;;;1.38;100.00;100204.13;4933184;28;20297;-83
2021/12/11 07:44:34;;;;;;;0.10;0.10;;;1.70;99.90;;;1.37;100.00;100212.78;4970003;28;20389;-84
2021/12/11 07:47:05;;;;;;;0.20;0.20;;;1.70;99.90;;;1.37;100.00;100224.91;4939635;28;20201;-84
2021/12/11 07:49:34;;;;;;;0.20;0.20;;;;;;;1.33;100.00;100231.72;4973084;28;20243;-84
2021/12/11 07:52:04;;;;;;;0.20;0.20;;;1.70;99.90;;;1.34;100.00;100240.41;4975857;28;20216;-84
2021/12/11 07:54:33;;;;;;;0.10;0.10;;;1.70;99.90;;;1.33;100.00;100254.25;4972126;28;20200;-84
2021/12/11 07:57:01;;;;;;;0.20;0.20;;;;;;;1.37;100.00;100256.19;4957716;28;20197;-84
2021/12/11 07:59:30;;;;;;;0.10;0.10;;;;;;;1.40;100.00;100264.13;4942617;28;20224;-84
2021/12/11 08:01:58;;;;;;;0.10;0.10;;;;;;;1.47;100.00;100277.47;4973189;28;20208;-84
2021/12/11 08:04:27;;;;;;;0.40;0.40;;;;;;;1.49;100.00;100280.16;4961669;28;20221;-84
2021/12/11 08:06:58;;;;;;;0.10;0.10;;;2.00;99.90;;;1.51;100.00;100297.63;4938905;28;20216;-84
2021/12/11 08:09:26;;;;;;;0.10;0.10;;;2.00;99.90;;;1.50;100.00;100300.16;4958550;28;20263;-84
2021/12/11 08:11:56;;;;;;;0.10;0.10;;;2.00;99.90;;;1.52;100.00;100303.72;4956580;28;20209;-84
2021/12/11 08:14:25;;;;;;;0.10;0.10;;;;;;;1.58;100.00;100323.13;4974580;28;20552;-82
2021/12/11 08:16:57;;;;;;;0.10;0.10;;;2.20;99.90;;;1.57;100.00;100325.66;4952760;28;20231;-81
2021/12/11 08:19:28;;;;;;;0.10;0.10;;;2.20;99.90;;;1.56;100.00;100324.78;4954375;28;20236;-83
2021/12/11 08:21:59;;;;;;;0.10;0.10;;;2.10;99.90;;;1.60;100.00;100347.53;4954076;28;20231;-84
2021/12/11 08:24:29;;;;;;;0.10;0.10;;;;;;;1.62;100.00;100359.75;4952927;28;20220;-84
2021/12/11 08:27:09;;;;;;;0.10;0.10;;;2.10;99.90;;;1.62;100.00;100370.16;4978092;28;20216;-84
2021/12/11 08:29:43;;;;;;;0.10;0.10;;;2.10;99.90;;;1.66;100.00;100382.50;4941406;28;20232;-85
2021/12/11 08:32:12;;;;;;;0.10;0.10;;;2.20;99.90;;;1.73;100.00;100397.59;4954393;28;20204;-84
2021/12/11 08:34:41;;;;;;;0.10;0.10;;;2.20;99.90;;;1.77;100.00;100407.34;4941704;28;20205;-85
2021/12/11 08:37:12;;;;;;;0.10;0.10;;;2.30;99.90;;;1.82;100.00;100409.31;4939563;28;20227;-84
2021/12/11 08:39:42;;;;;;;0.10;0.10;;;2.30;99.90;;;1.89;100.00;100418.28;4954557;28;20240;-84
2021/12/11 08:42:18;;;;;;;0.10;0.10;;;2.40;99.90;;;1.97;100.00;100429.94;4955598;28;20200;-85
2021/12/11 08:44:53;;;;;;;0.10;0.10;;;2.40;99.90;;;2.01;100.00;100433.56;4956118;28;20235;-84
2021/12/11 08:47:23;;;;;;;0.10;0.10;;;2.50;99.90;;;2.06;100.00;100440.78;4967181;28;20652;-86
2021/12/11 08:49:53;;;;;;;0.20;0.20;;;2.60;99.90;;;2.14;100.00;100444.59;4946591;28;20244;-86
2021/12/11 08:52:30;;;;;;;0.10;0.10;;;;;;;2.18;100.00;100462.16;4953499;28;20236;-85
2021/12/11 08:55:00;;;;;;;0.10;0.10;;;2.70;99.90;;;2.23;100.00;100471.09;4958513;28;20208;-85
2021/12/11 08:57:32;;;;;;;0.10;0.10;;;2.70;99.90;;;2.24;100.00;100471.97;4942158;28;20208;-84
2021/12/11 09:00:14;;;;;;;0.10;0.10;;;2.80;99.90;;;2.35;100.00;100491.59;4956821;28;20227;-86
2021/12/11 09:02:53;;;;;;;0.10;0.10;;;2.90;99.90;;;2.43;100.00;100491.91;4942038;28;20211;-86
2021/12/11 09:05:50;;;;;;;0.10;0.10;;;2.90;99.90;;;2.49;100.00;100515.66;4948783;28;20239;-86
2021/12/11 09:08:28;;;;;;;0.10;0.10;;;3.00;99.90;;;2.59;100.00;100520.44;4947541;28;20213;-84
2021/12/11 09:11:13;;;;;;;0.10;0.10;;;3.10;99.90;;;2.63;100.00;100519.78;4951002;28;20200;-84
2021/12/11 09:13:54;;;;;;;0.10;0.10;;;3.10;99.90;;;2.67;100.00;100521.69;4956525;28;20213;-83
2021/12/11 09:16:25;;;;;;;0.10;0.10;;;;;;;2.76;100.00;100521.19;4948473;28;20201;-83
2021/12/11 09:19:08;;;;;;;0.55;0.55;;;3.20;99.90;;;2.79;100.00;100523.91;4939895;28;20225;-83
2021/12/11 09:21:55;;;;;;;0.10;0.10;;;3.20;99.90;;;2.83;100.00;100531.06;4969033;28;20209;-84
2021/12/11 09:24:55;;;;;;;0.10;0.10;;;3.30;99.90;;;2.87;100.00;100532.97;4948271;28;20197;-85
2021/12/11 09:27:28;;;;;;;0.10;0.10;;;3.30;99.90;;;2.92;100.00;100544.50;4968826;28;20584;-85
2021/12/11 09:30:28;;;;;;;0.10;0.10;;;3.30;99.90;;;2.92;100.00;100530.53;4966603;28;20229;-83
2021/12/11 09:33:06;;;;;;;0.10;0.10;;;3.40;99.90;;;2.99;100.00;100550.84;4983258;28;20197;-85
2021/12/11 09:35:50;;;;;;;0.10;0.10;;;3.40;99.90;;;3.02;100.00;100553.59;4956174;28;20564;-85
2021/12/11 09:38:47;;;;;;;0.10;0.10;;;3.40;99.90;;;3.01;100.00;100550.09;4958843;28;20280;-85
2021/12/11 09:41:21;;;;;;;0.10;0.10;;;3.40;99.90;;;3.05;100.00;100554.63;4987723;28;20205;-84
2021/12/11 09:44:18;;;;;;;0.10;0.10;;;3.50;99.90;;;3.07;100.00;100554.69;4972352;28;20235;-84
2021/12/11 09:46:51;;;;;;;0.10;0.10;;;;;;;3.09;100.00;100559.13;4954891;28;20205;-83
2021/12/11 09:49:27;;;;;;;0.10;0.10;;;3.50;99.90;;;3.12;100.00;100556.66;4931411;28;20236;-85
2021/12/11 09:52:04;;;;;;;0.10;0.10;;;3.50;99.90;;;3.16;100.00;100560.28;4957824;28;20208;-84
2021/12/11 09:54:35;;;;;;;0.10;0.10;;;3.60;99.90;;;3.17;100.00;100569.91;4969311;28;20204;-84
2021/12/11 09:57:14;;;;;;;0.10;0.10;;;3.60;99.90;;;3.21;100.00;100574.41;4983939;28;20208;-84
2021/12/11 09:59:47;;;;;;;0.10;0.10;;;3.60;99.90;;;3.23;100.00;100583.22;4953569;28;20233;-84
2021/12/11 10:02:24;;;;;;;0.10;0.10;;;3.70;99.90;;;3.27;100.00;100585.13;4968290;28;20221;-84
2021/12/11 10:05:04;;;;;;;0.20;0.20;;;3.70;99.90;;;3.29;100.00;100595.63;4940051;28;20231;-83
2021/12/11 10:07:38;;;;;;;0.10;0.10;;;3.70;99.90;;;3.33;100.00;100590.59;4960047;28;20212;-84
2021/12/11 10:10:23;;;;;;;0.10;0.10;;;3.70;99.90;;;3.37;100.00;100597.72;4961202;28;20228;-83
2021/12/11 10:12:55;;;;;;;0.10;0.10;;;3.80;99.90;;;3.45;100.00;100590.19;4982772;28;20204;-82
2021/12/11 10:15:29;;;;;;;0.10;0.10;;;3.90;99.90;;;3.49;100.00;100585.16;4950300;28;20212;-82
2021/12/11 10:18:06;;;;;;;0.10;0.10;;;4.00;99.90;;;3.54;100.00;100588.84;4946329;28;20208;-83
2021/12/11 10:20:44;;;;;;;0.10;0.10;;;4.00;99.90;;;3.60;100.00;100597.75;4975728;28;20608;-83
2021/12/11 10:23:18;;;;;;;0.10;0.10;;;4.10;99.90;;;3.67;100.00;100605.00;4939284;28;20227;-84
2021/12/11 10:25:48;;;;;;;0.10;0.10;;;4.10;99.90;;;3.69;100.00;100604.22;4943548;28;20240;-85
2021/12/11 10:28:19;;;;;;;0.10;0.10;;;4.10;99.90;;;3.74;100.00;100589.63;4941175;28;20205;-84
2021/12/11 10:30:56;;;;;;;0.10;0.10;;;4.20;99.90;;;3.79;100.00;100592.41;4992222;28;20568;-83
2021/12/11 10:33:31;;;;;;;0.10;0.10;;;4.20;99.90;;;3.81;100.00;100593.34;4969473;28;20213;-85
2021/12/11 10:36:07;;;;;;;0.10;0.10;;;4.20;99.90;;;3.84;100.00;100591.75;4975142;28;20685;-85
2021/12/11 10:38:36;;;;;;;0.10;0.10;;;;;;;3.84;100.00;100589.13;4944356;28;20219;-84
2021/12/11 10:41:26;;;;;;;0.10;0.10;;;4.20;99.90;;;3.84;100.00;100576.06;4961566;28;20204;-84
2021/12/11 10:44:04;;;;;;;0.10;0.10;;;4.20;99.90;;;3.87;100.00;100593.59;4959870;28;20229;-83
2021/12/11 10:46:39;;;;;;;0.10;0.10;;;4.30;99.90;;;4.00;100.00;100602.84;4967336;28;20239;-83
2021/12/11 10:49:11;;;;;;;0.10;0.10;;;4.40;99.90;;;4.12;100.00;100603.28;5001939;23;20219;-81
2021/12/11 10:51:47;;;;;;;0.10;0.10;;;4.60;99.90;;;4.29;100.00;100610.03;5020976;28;20849;-82
2021/12/11 10:54:19;;;;;;;0.10;0.10;;;4.60;99.90;;;4.38;100.00;100593.78;5013740;28;20199;-81
2021/12/11 10:56:48;;;;;;;0.10;0.10;;;4.80;99.90;;;4.48;100.00;100583.69;5024323;28;20218;-82
2021/12/11 10:59:32;;;;;;;0.10;0.10;;;4.90;99.90;;;4.48;100.00;100561.84;5023322;28;20230;-83
2021/12/11 11:02:16;;;;;;;0.10;0.10;;;4.80;99.90;;;4.46;100.00;100559.19;5008195;28;20215;-82
2021/12/11 11:04:53;;;;;;;0.10;0.10;;;4.80;99.90;;;4.41;100.00;100539.78;5022225;28;20207;-82
2021/12/11 11:07:23;;;;;;;0.10;0.10;;;4.80;99.90;;;4.39;100.00;100540.56;5007188;28;20239;-81
2021/12/11 11:09:52;;;;;;;0.10;0.10;;;;;;;4.39;100.00;100540.56;5010420;28;20231;-82
2021/12/11 11:12:24;;;;;;;0.10;0.10;;;4.80;99.90;;;4.49;100.00;100550.53;4977364;28;20222;-82
2021/12/11 11:14:54;;;;;;;0.10;0.10;;;4.80;99.90;;;4.55;100.00;100571.69;4990680;28;20215;-82
2021/12/11 11:17:30;;;;;;;0.10;0.10;;;4.90;99.90;;;4.65;100.00;100600.00;4992791;28;20703;-82
2021/12/11 11:19:59;;;;;;;0.10;0.10;;;5.00;99.90;;;4.71;100.00;100609.81;4984384;28;20231;-82
2021/12/11 11:22:33;;;;;;;0.10;0.10;;;5.00;99.90;;;4.74;100.00;100608.19;5001750;28;20215;-82
2021/12/11 11:25:11;;;;;;;0.10;0.10;;;5.00;99.90;;;4.72;100.00;100590.63;5027059;28;20211;-82